Time;durP1;ratioP1;P1;durP2;ratioP2;P2;SDS_P1;SDS_P2;PMS_P1;PMS_P2;Temp;Humidity;BMP_temperature;BMP_pressure;BME280_temperature;BME280_humidity;BME280_pressure;Samples;Min_cycle;Max_cycle;Signal;HPM_P1;HPM_P2
2020/04/20 00:00:48;;;;;;;10.6;7.299999;;;;;;;10.75;61.14648;94979.83;;;;
2020/04/20 00:01:49;;;;;;;10.6;7.299999;;;;;;;10.75;61.14648;94979.83;;;;
2020/04/20 00:02:49;;;;;;;8.950001;7.3;;;;;;;10.76;60.94238;94985.1;;;;
2020/04/20 00:03:50;;;;;;;8.950001;7.3;;;;;;;10.76;60.94238;94985.1;;;;
2020/04/20 00:04:50;;;;;;;8.950001;7.3;;;;;;;10.76;60.94238;94985.1;;;;
2020/04/20 00:05:51;;;;;;;8.950001;7.3;;;;;;;10.76;60.94238;94985.1;;;;
2020/04/20 00:06:51;;;;;;;8.950001;7.3;;;;;;;10.76;60.94238;94985.1;;;;
2020/04/20 00:07:52;;;;;;;8.950001;7.3;;;;;;;10.76;60.94238;94985.1;;;;
2020/04/20 00:08:52;;;;;;;8.950001;7.3;;;;;;;10.76;60.94238;94985.1;;;;
2020/04/20 00:09:53;;;;;;;8.950001;7.3;;;;;;;10.76;60.94238;94985.1;;;;
2020/04/20 00:10:53;;;;;;;8.950001;7.3;;;;;;;10.76;60.94238;94985.1;;;;
2020/04/20 00:11:53;;;;;;;8.950001;7.3;;;;;;;10.76;60.94238;94985.1;;;;
2020/04/20 00:12:54;;;;;;;8.950001;7.3;;;;;;;10.76;60.94238;94985.1;;;;
2020/04/20 00:13:54;;;;;;;11.65;7.6;;;;;;;10.58;60.66992;94974.92;;;;
2020/04/20 00:14:55;;;;;;;11.65;7.6;;;;;;;10.58;60.66992;94974.92;;;;
2020/04/20 00:15:55;;;;;;;11.4;7.35;;;;;;;10.59;60.61719;94981.16;;;;
2020/04/20 00:16:56;;;;;;;11.4;7.35;;;;;;;10.59;60.61719;94981.16;;;;
2020/04/20 00:17:56;;;;;;;11.4;7.35;;;;;;;10.59;60.61719;94981.16;;;;
2020/04/20 00:18:57;;;;;;;11.4;7.35;;;;;;;10.59;60.61719;94981.16;;;;
2020/04/20 00:19:57;;;;;;;11.4;7.35;;;;;;;10.59;60.61719;94981.16;;;;
2020/04/20 00:20:58;;;;;;;11.4;7.35;;;;;;;10.59;60.61719;94981.16;;;;
2020/04/20 00:21:58;;;;;;;11.4;7.35;;;;;;;10.59;60.61719;94981.16;;;;
2020/04/20 00:22:58;;;;;;;11.4;7.35;;;;;;;10.59;60.61719;94981.16;;;;
2020/04/20 00:23:59;;;;;;;11.4;7.35;;;;;;;10.59;60.61719;94981.16;;;;
2020/04/20 00:24:59;;;;;;;11.4;7.35;;;;;;;10.59;60.61719;94981.16;;;;
2020/04/20 00:26:00;;;;;;;11.4;7.35;;;;;;;10.59;60.61719;94981.16;;;;
2020/04/20 00:27:00;;;;;;;9.850001;7.299999;;;;;;;10.41;60.23828;94966;;;;
2020/04/20 00:28:01;;;;;;;9.850001;7.299999;;;;;;;10.41;60.23828;94966;;;;
2020/04/20 00:29:01;;;;;;;9.749999;6.799999;;;;;;;10.42;60.08887;94968.56;;;;
2020/04/20 00:30:02;;;;;;;9.749999;6.799999;;;;;;;10.42;60.08887;94968.56;;;;
2020/04/20 00:31:02;;;;;;;9.749999;6.799999;;;;;;;10.42;60.08887;94968.56;;;;
2020/04/20 00:32:03;;;;;;;9.749999;6.799999;;;;;;;10.42;60.08887;94968.56;;;;
2020/04/20 00:33:03;;;;;;;9.749999;6.799999;;;;;;;10.42;60.08887;94968.56;;;;
2020/04/20 00:34:04;;;;;;;9.749999;6.799999;;;;;;;10.42;60.08887;94968.56;;;;
2020/04/20 00:35:04;;;;;;;9.749999;6.799999;;;;;;;10.42;60.08887;94968.56;;;;
2020/04/20 00:36:04;;;;;;;9.749999;6.799999;;;;;;;10.42;60.08887;94968.56;;;;
2020/04/20 00:37:05;;;;;;;9.749999;6.799999;;;;;;;10.42;60.08887;94968.56;;;;
2020/04/20 00:38:05;;;;;;;9.749999;6.799999;;;;;;;10.42;60.08887;94968.56;;;;
2020/04/20 00:39:06;;;;;;;9.749999;6.799999;;;;;;;10.42;60.08887;94968.56;;;;
2020/04/20 00:40:11;;;;;;;10.75;6.75;;;;;;;10.29;59.53418;94949.99;;;;
2020/04/20 00:41:11;;;;;;;10.75;6.75;;;;;;;10.29;59.53418;94949.99;;;;
2020/04/20 00:42:12;;;;;;;8.800001;6.400001;;;;;;;10.31;59.32129;94951.51;;;;
2020/04/20 00:43:12;;;;;;;8.800001;6.400001;;;;;;;10.31;59.32129;94951.51;;;;
2020/04/20 00:44:13;;;;;;;8.800001;6.400001;;;;;;;10.31;59.32129;94951.51;;;;
2020/04/20 00:45:13;;;;;;;8.800001;6.400001;;;;;;;10.31;59.32129;94951.51;;;;
2020/04/20 00:46:13;;;;;;;8.800001;6.400001;;;;;;;10.31;59.32129;94951.51;;;;
2020/04/20 00:47:14;;;;;;;8.800001;6.400001;;;;;;;10.31;59.32129;94951.51;;;;
2020/04/20 00:48:14;;;;;;;8.800001;6.400001;;;;;;;10.31;59.32129;94951.51;;;;
2020/04/20 00:49:15;;;;;;;8.800001;6.400001;;;;;;;10.31;59.32129;94951.51;;;;
2020/04/20 00:50:15;;;;;;;8.800001;6.400001;;;;;;;10.31;59.32129;94951.51;;;;
2020/04/20 00:51:16;;;;;;;8.800001;6.400001;;;;;;;10.31;59.32129;94951.51;;;;
2020/04/20 00:52:16;;;;;;;8.800001;6.400001;;;;;;;10.31;59.32129;94951.51;;;;
2020/04/20 00:53:17;;;;;;;9.599999;6.4;;;;;;;10.17;58.83008;94944.22;;;;
2020/04/20 00:54:17;;;;;;;9.599999;6.4;;;;;;;10.17;58.83008;94944.22;;;;
2020/04/20 00:55:18;;;;;;;9.599999;6.4;;;;;;;10.17;58.83008;94944.22;;;;
2020/04/20 00:56:18;;;;;;;10.55;6.45;;;;;;;10.2;58.37305;94946.42;;;;
2020/04/20 00:57:19;;;;;;;10.55;6.45;;;;;;;10.2;58.37305;94946.42;;;;
2020/04/20 00:58:20;;;;;;;10.55;6.45;;;;;;;10.2;58.37305;94946.42;;;;
2020/04/20 00:59:20;;;;;;;10.55;6.45;;;;;;;10.2;58.37305;94946.42;;;;
2020/04/20 01:00:21;;;;;;;10.55;6.45;;;;;;;10.2;58.37305;94946.42;;;;
2020/04/20 01:01:29;;;;;;;10.55;6.45;;;;;;;10.2;58.37305;94946.42;;;;
2020/04/20 01:08:54;;;;;;;9.450001;6.05;;;;;;;10.14;57.43066;94930.3;;;;
2020/04/20 01:10:06;;;;;;;9.450001;6.05;;;;;;;10.14;57.43066;94930.3;;;;
2020/04/20 01:12:18;;;;;;;9.450001;6.05;;;;;;;10.14;57.43066;94930.3;;;;
2020/04/20 01:13:18;;;;;;;9.450001;6.05;;;;;;;10.14;57.43066;94930.3;;;;
2020/04/20 01:14:19;;;;;;;9.450001;6.05;;;;;;;10.14;57.43066;94930.3;;;;
2020/04/20 01:15:19;;;;;;;9.450001;6.05;;;;;;;10.14;57.43066;94930.3;;;;
2020/04/20 01:16:20;;;;;;;9.450001;6.05;;;;;;;10.14;57.43066;94930.3;;;;
2020/04/20 01:17:21;;;;;;;8.700001;6.05;;;;;;;10.19;56.77148;94933.59;;;;
2020/04/20 01:18:22;;;;;;;8.700001;6.05;;;;;;;10.19;56.77148;94933.59;;;;
2020/04/20 01:19:23;;;;;;;8.700001;6.05;;;;;;;10.19;56.77148;94933.59;;;;
2020/04/20 01:20:23;;;;;;;8.700001;6.05;;;;;;;10.19;56.77148;94933.59;;;;
2020/04/20 01:21:24;;;;;;;8.700001;6.05;;;;;;;10.19;56.77148;94933.59;;;;
2020/04/20 01:22:24;;;;;;;8.700001;6.05;;;;;;;10.19;56.77148;94933.59;;;;
2020/04/20 01:23:25;;;;;;;8.700001;6.05;;;;;;;10.19;56.77148;94933.59;;;;
2020/04/20 01:24:25;;;;;;;8.700001;6.05;;;;;;;10.19;56.77148;94933.59;;;;
2020/04/20 01:25:26;;;;;;;8.700001;6.05;;;;;;;10.19;56.77148;94933.59;;;;
2020/04/20 01:26:26;;;;;;;8.700001;6.05;;;;;;;10.19;56.77148;94933.59;;;;
2020/04/20 01:27:27;;;;;;;8.6;5.55;;;;;;;10.13;55.96582;94920.68;;;;
2020/04/20 01:28:27;;;;;;;8.6;5.55;;;;;;;10.13;55.96582;94920.68;;;;
2020/04/20 01:29:28;;;;;;;8.6;5.55;;;;;;;10.13;55.96582;94920.68;;;;
2020/04/20 01:30:28;;;;;;;9.099998;5.8;;;;;;;10.19;55.26465;94933.18;;;;
2020/04/20 01:31:29;;;;;;;9.099998;5.8;;;;;;;10.19;55.26465;94933.18;;;;
2020/04/20 01:32:29;;;;;;;9.099998;5.8;;;;;;;10.19;55.26465;94933.18;;;;
2020/04/20 01:33:30;;;;;;;9.099998;5.8;;;;;;;10.19;55.26465;94933.18;;;;
2020/04/20 01:34:30;;;;;;;9.099998;5.8;;;;;;;10.19;55.26465;94933.18;;;;
2020/04/20 01:35:31;;;;;;;9.099998;5.8;;;;;;;10.19;55.26465;94933.18;;;;
2020/04/20 01:36:31;;;;;;;9.099998;5.8;;;;;;;10.19;55.26465;94933.18;;;;
2020/04/20 01:37:32;;;;;;;9.099998;5.8;;;;;;;10.19;55.26465;94933.18;;;;
2020/04/20 01:38:32;;;;;;;9.099998;5.8;;;;;;;10.19;55.26465;94933.18;;;;
2020/04/20 01:39:33;;;;;;;9.099998;5.8;;;;;;;10.19;55.26465;94933.18;;;;
2020/04/20 01:40:33;;;;;;;8.550001;5.900001;;;;;;;10.16;54.65918;94933.67;;;;
2020/04/20 01:41:34;;;;;;;8.550001;5.900001;;;;;;;10.16;54.65918;94933.67;;;;
2020/04/20 01:42:34;;;;;;;8.550001;5.900001;;;;;;;10.16;54.65918;94933.67;;;;
2020/04/20 01:43:34;;;;;;;8.550001;5.900001;;;;;;;10.16;54.65918;94933.67;;;;
2020/04/20 01:44:35;;;;;;;8.550001;5.900001;;;;;;;10.16;54.65918;94933.67;;;;
2020/04/20 01:45:35;;;;;;;8.550001;5.900001;;;;;;;10.16;54.65918;94933.67;;;;
2020/04/20 01:46:36;;;;;;;8.550001;5.900001;;;;;;;10.16;54.65918;94933.67;;;;
2020/04/20 01:47:36;;;;;;;8.550001;5.900001;;;;;;;10.16;54.65918;94933.67;;;;
2020/04/20 01:48:37;;;;;;;8.550001;5.900001;;;;;;;10.16;54.65918;94933.67;;;;
2020/04/20 01:49:37;;;;;;;8.550001;5.900001;;;;;;;10.16;54.65918;94933.67;;;;
2020/04/20 01:50:38;;;;;;;8.550001;5.900001;;;;;;;10.16;54.65918;94933.67;;;;
2020/04/20 01:51:38;;;;;;;7.85;5.5;;;;;;;10.18;54.26367;94942.35;;;;
2020/04/20 01:52:38;;;;;;;7.85;5.5;;;;;;;10.18;54.26367;94942.35;;;;
2020/04/20 01:53:39;;;;;;;7.85;5.5;;;;;;;10.18;54.26367;94942.35;;;;
2020/04/20 01:54:39;;;;;;;7.85;5.5;;;;;;;10.18;54.26367;94942.35;;;;
2020/04/20 01:55:40;;;;;;;7.85;5.5;;;;;;;10.18;54.26367;94942.35;;;;
2020/04/20 01:56:40;;;;;;;7.85;5.5;;;;;;;10.18;54.26367;94942.35;;;;
2020/04/20 01:57:41;;;;;;;7.85;5.5;;;;;;;10.18;54.26367;94942.35;;;;
2020/04/20 01:58:41;;;;;;;7.85;5.5;;;;;;;10.18;54.26367;94942.35;;;;
2020/04/20 01:59:42;;;;;;;7.85;5.5;;;;;;;10.18;54.26367;94942.35;;;;
2020/04/20 02:00:42;;;;;;;7.85;5.5;;;;;;;10.18;54.26367;94942.35;;;;
2020/04/20 02:01:43;;;;;;;8.849999;5.2;;;;;;;10.11;53.56738;94940.2;;;;
2020/04/20 02:02:43;;;;;;;8.849999;5.2;;;;;;;10.11;53.56738;94940.2;;;;
2020/04/20 02:03:44;;;;;;;8.849999;5.2;;;;;;;10.11;53.56738;94940.2;;;;
2020/04/20 02:04:44;;;;;;;8.849999;5.2;;;;;;;10.11;53.56738;94940.2;;;;
2020/04/20 02:05:44;;;;;;;8.849999;5.2;;;;;;;10.11;53.56738;94940.2;;;;
2020/04/20 02:06:45;;;;;;;8.849999;5.2;;;;;;;10.11;53.56738;94940.2;;;;
2020/04/20 02:07:45;;;;;;;8.849999;5.2;;;;;;;10.11;53.56738;94940.2;;;;
2020/04/20 02:08:46;;;;;;;8.849999;5.2;;;;;;;10.11;53.56738;94940.2;;;;
2020/04/20 02:09:46;;;;;;;8.849999;5.2;;;;;;;10.11;53.56738;94940.2;;;;
2020/04/20 02:10:47;;;;;;;8.849999;5.2;;;;;;;10.11;53.56738;94940.2;;;;
2020/04/20 02:11:47;;;;;;;8.849999;5.2;;;;;;;10.11;53.56738;94940.2;;;;
2020/04/20 02:12:48;;;;;;;7.5;5.25;;;;;;;10.11;52.59863;94938.84;;;;
2020/04/20 02:14:20;;;;;;;7.5;5.25;;;;;;;10.11;52.59863;94938.84;;;;
2020/04/20 02:15:30;;;;;;;7.5;5.25;;;;;;;10.11;52.59863;94938.84;;;;
2020/04/20 02:16:39;;;;;;;7.5;5.25;;;;;;;10.11;52.59863;94938.84;;;;
2020/04/20 02:20:44;;;;;;;7.5;5.25;;;;;;;10.11;52.59863;94938.84;;;;
2020/04/20 02:21:45;;;;;;;7.5;5.25;;;;;;;10.11;52.59863;94938.84;;;;
2020/04/20 02:22:46;;;;;;;7.55;5.5;;;;;;;10.04;52.30078;94922.38;;;;
2020/04/20 02:23:47;;;;;;;7.55;5.5;;;;;;;10.04;52.30078;94922.38;;;;
2020/04/20 02:24:47;;;;;;;7.55;5.5;;;;;;;10.04;52.30078;94922.38;;;;
2020/04/20 02:25:47;;;;;;;7.55;5.5;;;;;;;10.04;52.30078;94922.38;;;;
2020/04/20 02:26:48;;;;;;;7.55;5.5;;;;;;;10.04;52.30078;94922.38;;;;
2020/04/20 02:27:48;;;;;;;7.55;5.5;;;;;;;10.04;52.30078;94922.38;;;;
2020/04/20 02:28:49;;;;;;;7.55;5.5;;;;;;;10.04;52.30078;94922.38;;;;
2020/04/20 02:29:49;;;;;;;7.55;5.5;;;;;;;10.04;52.30078;94922.38;;;;
2020/04/20 02:30:50;;;;;;;7.55;5.5;;;;;;;10.04;52.30078;94922.38;;;;
2020/04/20 02:31:50;;;;;;;7.55;5.5;;;;;;;10.04;52.30078;94922.38;;;;
2020/04/20 02:32:51;;;;;;;7.55;5.5;;;;;;;10.04;52.30078;94922.38;;;;
2020/04/20 02:33:51;;;;;;;9.199999;5.450001;;;;;;;10.04;51.9668;94919.67;;;;
2020/04/20 02:34:52;;;;;;;9.199999;5.450001;;;;;;;10.04;51.9668;94919.67;;;;
2020/04/20 02:35:52;;;;;;;9.199999;5.450001;;;;;;;10.04;51.9668;94919.67;;;;
2020/04/20 02:36:52;;;;;;;9.199999;5.450001;;;;;;;10.04;51.9668;94919.67;;;;
2020/04/20 02:37:53;;;;;;;9.199999;5.450001;;;;;;;10.04;51.9668;94919.67;;;;
2020/04/20 02:38:53;;;;;;;9.199999;5.450001;;;;;;;10.04;51.9668;94919.67;;;;
2020/04/20 02:39:54;;;;;;;9.199999;5.450001;;;;;;;10.04;51.9668;94919.67;;;;
2020/04/20 02:40:54;;;;;;;9.199999;5.450001;;;;;;;10.04;51.9668;94919.67;;;;
2020/04/20 02:41:55;;;;;;;9.199999;5.450001;;;;;;;10.04;51.9668;94919.67;;;;
2020/04/20 02:42:55;;;;;;;9.199999;5.450001;;;;;;;10.04;51.9668;94919.67;;;;
2020/04/20 02:43:56;;;;;;;7.7;5.600001;;;;;;;9.99;51.66992;94926.84;;;;
2020/04/20 02:44:56;;;;;;;7.7;5.600001;;;;;;;9.99;51.66992;94926.84;;;;
2020/04/20 02:45:56;;;;;;;7.7;5.600001;;;;;;;9.99;51.66992;94926.84;;;;
2020/04/20 02:46:57;;;;;;;7.7;5.600001;;;;;;;9.99;51.66992;94926.84;;;;
2020/04/20 02:47:57;;;;;;;7.7;5.600001;;;;;;;9.99;51.66992;94926.84;;;;
2020/04/20 02:48:58;;;;;;;7.7;5.600001;;;;;;;9.99;51.66992;94926.84;;;;
2020/04/20 02:49:58;;;;;;;7.7;5.600001;;;;;;;9.99;51.66992;94926.84;;;;
2020/04/20 02:50:59;;;;;;;7.7;5.600001;;;;;;;9.99;51.66992;94926.84;;;;
2020/04/20 02:51:59;;;;;;;7.7;5.600001;;;;;;;9.99;51.66992;94926.84;;;;
2020/04/20 02:53:00;;;;;;;7.7;5.600001;;;;;;;9.99;51.66992;94926.84;;;;
2020/04/20 02:54:00;;;;;;;7.7;5.600001;;;;;;;9.99;51.66992;94926.84;;;;
2020/04/20 02:55:01;;;;;;;10.4;5.799999;;;;;;;10;51.45605;94917.72;;;;
2020/04/20 02:56:01;;;;;;;10.4;5.799999;;;;;;;10;51.45605;94917.72;;;;
2020/04/20 02:57:01;;;;;;;10.4;5.799999;;;;;;;10;51.45605;94917.72;;;;
2020/04/20 02:58:02;;;;;;;10.4;5.799999;;;;;;;10;51.45605;94917.72;;;;
2020/04/20 02:59:02;;;;;;;10.4;5.799999;;;;;;;10;51.45605;94917.72;;;;
2020/04/20 03:00:03;;;;;;;10.4;5.799999;;;;;;;10;51.45605;94917.72;;;;
2020/04/20 03:01:04;;;;;;;10.4;5.799999;;;;;;;10;51.45605;94917.72;;;;
2020/04/20 03:02:04;;;;;;;10.4;5.799999;;;;;;;10;51.45605;94917.72;;;;
2020/04/20 03:03:05;;;;;;;10.4;5.799999;;;;;;;10;51.45605;94917.72;;;;
2020/04/20 03:04:05;;;;;;;10.4;5.799999;;;;;;;10;51.45605;94917.72;;;;
2020/04/20 03:05:06;;;;;;;9.050001;5.65;;;;;;;9.91;51.14551;94924;;;;
2020/04/20 03:06:06;;;;;;;9.050001;5.65;;;;;;;9.91;51.14551;94924;;;;
2020/04/20 03:07:07;;;;;;;9.050001;5.65;;;;;;;9.91;51.14551;94924;;;;
2020/04/20 03:08:07;;;;;;;9.050001;5.65;;;;;;;9.91;51.14551;94924;;;;
2020/04/20 03:09:08;;;;;;;9.050001;5.65;;;;;;;9.91;51.14551;94924;;;;
2020/04/20 03:10:10;;;;;;;9.050001;5.65;;;;;;;9.91;51.14551;94924;;;;
2020/04/20 03:11:10;;;;;;;9.050001;5.65;;;;;;;9.91;51.14551;94924;;;;
2020/04/20 03:12:11;;;;;;;9.050001;5.65;;;;;;;9.91;51.14551;94924;;;;
2020/04/20 03:13:11;;;;;;;9.050001;5.65;;;;;;;9.91;51.14551;94924;;;;
2020/04/20 03:14:12;;;;;;;9.050001;5.65;;;;;;;9.91;51.14551;94924;;;;
2020/04/20 03:15:12;;;;;;;9.050001;5.65;;;;;;;9.91;51.14551;94924;;;;
2020/04/20 03:16:13;;;;;;;8;5.25;;;;;;;9.91;51.15527;94914.7;;;;
2020/04/20 03:17:13;;;;;;;8;5.25;;;;;;;9.91;51.15527;94914.7;;;;
2020/04/20 03:18:13;;;;;;;8;5.25;;;;;;;9.91;51.15527;94914.7;;;;
2020/04/20 03:19:14;;;;;;;8;5.25;;;;;;;9.91;51.15527;94914.7;;;;
2020/04/20 03:20:14;;;;;;;8;5.25;;;;;;;9.91;51.15527;94914.7;;;;
2020/04/20 03:21:15;;;;;;;8;5.25;;;;;;;9.91;51.15527;94914.7;;;;
2020/04/20 03:22:15;;;;;;;8;5.25;;;;;;;9.91;51.15527;94914.7;;;;
2020/04/20 03:23:16;;;;;;;8;5.25;;;;;;;9.91;51.15527;94914.7;;;;
2020/04/20 03:24:16;;;;;;;8;5.25;;;;;;;9.91;51.15527;94914.7;;;;
2020/04/20 03:25:17;;;;;;;8;5.25;;;;;;;9.91;51.15527;94914.7;;;;
2020/04/20 03:26:17;;;;;;;9.450002;5.7;;;;;;;9.79;50.52832;94915.66;;;;
2020/04/20 03:27:18;;;;;;;9.450002;5.7;;;;;;;9.79;50.52832;94915.66;;;;
2020/04/20 03:28:18;;;;;;;9.450002;5.7;;;;;;;9.79;50.52832;94915.66;;;;
2020/04/20 03:29:19;;;;;;;9.450002;5.7;;;;;;;9.79;50.52832;94915.66;;;;
2020/04/20 03:30:19;;;;;;;9.450002;5.7;;;;;;;9.79;50.52832;94915.66;;;;
2020/04/20 03:31:19;;;;;;;9.450002;5.7;;;;;;;9.79;50.52832;94915.66;;;;
2020/04/20 03:32:20;;;;;;;9.450002;5.7;;;;;;;9.79;50.52832;94915.66;;;;
2020/04/20 03:33:20;;;;;;;9.450002;5.7;;;;;;;9.79;50.52832;94915.66;;;;
2020/04/20 03:34:21;;;;;;;9.450002;5.7;;;;;;;9.79;50.52832;94915.66;;;;
2020/04/20 03:35:22;;;;;;;9.450002;5.7;;;;;;;9.79;50.52832;94915.66;;;;
2020/04/20 03:36:22;;;;;;;9.450002;5.7;;;;;;;9.79;50.52832;94915.66;;;;
2020/04/20 03:37:23;;;;;;;7;5.25;;;;;;;9.71;50.43359;94898.95;;;;
2020/04/20 03:38:23;;;;;;;7;5.25;;;;;;;9.71;50.43359;94898.95;;;;
2020/04/20 03:39:23;;;;;;;7;5.25;;;;;;;9.71;50.43359;94898.95;;;;
2020/04/20 03:40:24;;;;;;;7;5.25;;;;;;;9.71;50.43359;94898.95;;;;
2020/04/20 03:41:24;;;;;;;7;5.25;;;;;;;9.71;50.43359;94898.95;;;;
2020/04/20 03:42:25;;;;;;;7;5.25;;;;;;;9.71;50.43359;94898.95;;;;
2020/04/20 03:43:25;;;;;;;7;5.25;;;;;;;9.71;50.43359;94898.95;;;;
2020/04/20 03:44:26;;;;;;;7;5.25;;;;;;;9.71;50.43359;94898.95;;;;
2020/04/20 03:45:26;;;;;;;7;5.25;;;;;;;9.71;50.43359;94898.95;;;;
2020/04/20 03:46:27;;;;;;;7;5.25;;;;;;;9.71;50.43359;94898.95;;;;
2020/04/20 03:47:27;;;;;;;8.3;5.349999;;;;;;;9.59;50.27832;94898.71;;;;
2020/04/20 03:48:28;;;;;;;8.3;5.349999;;;;;;;9.59;50.27832;94898.71;;;;
2020/04/20 03:49:28;;;;;;;8.3;5.349999;;;;;;;9.59;50.27832;94898.71;;;;
2020/04/20 03:50:29;;;;;;;8.3;5.349999;;;;;;;9.59;50.27832;94898.71;;;;
2020/04/20 03:51:29;;;;;;;8.3;5.349999;;;;;;;9.59;50.27832;94898.71;;;;
2020/04/20 03:52:37;;;;;;;8.3;5.349999;;;;;;;9.59;50.27832;94898.71;;;;
2020/04/20 03:53:37;;;;;;;8.3;5.349999;;;;;;;9.59;50.27832;94898.71;;;;
2020/04/20 03:54:38;;;;;;;8.3;5.349999;;;;;;;9.59;50.27832;94898.71;;;;
2020/04/20 03:55:38;;;;;;;8.3;5.349999;;;;;;;9.59;50.27832;94898.71;;;;
2020/04/20 03:56:39;;;;;;;8.3;5.349999;;;;;;;9.59;50.27832;94898.71;;;;
2020/04/20 03:57:39;;;;;;;8.3;5.349999;;;;;;;9.59;50.27832;94898.71;;;;
2020/04/20 03:58:41;;;;;;;7.900001;4.95;;;;;;;9.53;50.18652;94896.84;;;;
2020/04/20 03:59:41;;;;;;;7.900001;4.95;;;;;;;9.53;50.18652;94896.84;;;;
2020/04/20 04:00:41;;;;;;;7.900001;4.95;;;;;;;9.53;50.18652;94896.84;;;;
2020/04/20 04:01:47;;;;;;;7.900001;4.95;;;;;;;9.53;50.18652;94896.84;;;;
2020/04/20 04:02:48;;;;;;;7.900001;4.95;;;;;;;9.53;50.18652;94896.84;;;;
2020/04/20 04:03:49;;;;;;;7.900001;4.95;;;;;;;9.53;50.18652;94896.84;;;;
2020/04/20 04:04:49;;;;;;;7.900001;4.95;;;;;;;9.53;50.18652;94896.84;;;;
2020/04/20 04:05:50;;;;;;;7.900001;4.95;;;;;;;9.53;50.18652;94896.84;;;;
2020/04/20 04:06:50;;;;;;;7.900001;4.95;;;;;;;9.53;50.18652;94896.84;;;;
2020/04/20 04:07:51;;;;;;;7.900001;4.95;;;;;;;9.53;50.18652;94896.84;;;;
2020/04/20 04:08:51;;;;;;;7.199999;4.75;;;;;;;9.38;50.04004;94902.32;;;;
2020/04/20 04:09:52;;;;;;;7.199999;4.75;;;;;;;9.38;50.04004;94902.32;;;;
2020/04/20 04:10:53;;;;;;;7.199999;4.75;;;;;;;9.38;50.04004;94902.32;;;;
2020/04/20 04:11:53;;;;;;;7.199999;4.75;;;;;;;9.38;50.04004;94902.32;;;;
2020/04/20 04:12:54;;;;;;;7.199999;4.75;;;;;;;9.38;50.04004;94902.32;;;;
2020/04/20 04:13:54;;;;;;;7.199999;4.75;;;;;;;9.38;50.04004;94902.32;;;;
2020/04/20 04:14:55;;;;;;;7.199999;4.75;;;;;;;9.38;50.04004;94902.32;;;;
2020/04/20 04:15:55;;;;;;;7.199999;4.75;;;;;;;9.38;50.04004;94902.32;;;;
2020/04/20 04:16:55;;;;;;;7.199999;4.75;;;;;;;9.38;50.04004;94902.32;;;;
2020/04/20 04:17:56;;;;;;;7.199999;4.75;;;;;;;9.38;50.04004;94902.32;;;;
2020/04/20 04:18:56;;;;;;;7.199999;4.75;;;;;;;9.38;50.04004;94902.32;;;;
2020/04/20 04:19:57;;;;;;;6.9;4.6;;;;;;;9.3;50.01953;94913.59;;;;
2020/04/20 04:20:57;;;;;;;6.9;4.6;;;;;;;9.3;50.01953;94913.59;;;;
2020/04/20 04:21:58;;;;;;;6.9;4.6;;;;;;;9.3;50.01953;94913.59;;;;
2020/04/20 04:23:00;;;;;;;6.9;4.6;;;;;;;9.3;50.01953;94913.59;;;;
2020/04/20 04:24:00;;;;;;;6.9;4.6;;;;;;;9.3;50.01953;94913.59;;;;
2020/04/20 04:25:00;;;;;;;6.9;4.6;;;;;;;9.3;50.01953;94913.59;;;;
2020/04/20 04:26:01;;;;;;;6.9;4.6;;;;;;;9.3;50.01953;94913.59;;;;
2020/04/20 04:27:01;;;;;;;6.9;4.6;;;;;;;9.3;50.01953;94913.59;;;;
2020/04/20 04:28:02;;;;;;;6.9;4.6;;;;;;;9.3;50.01953;94913.59;;;;
2020/04/20 04:29:02;;;;;;;6.9;4.6;;;;;;;9.3;50.01953;94913.59;;;;
2020/04/20 04:30:03;;;;;;;7.650001;4.849999;;;;;;;9.11;50.0625;94911.14;;;;
2020/04/20 04:31:03;;;;;;;7.650001;4.849999;;;;;;;9.11;50.0625;94911.14;;;;
2020/04/20 04:32:04;;;;;;;7.650001;4.849999;;;;;;;9.11;50.0625;94911.14;;;;
2020/04/20 04:33:04;;;;;;;7.650001;4.849999;;;;;;;9.11;50.0625;94911.14;;;;
2020/04/20 04:34:05;;;;;;;7.650001;4.849999;;;;;;;9.11;50.0625;94911.14;;;;
2020/04/20 04:35:05;;;;;;;7.650001;4.849999;;;;;;;9.11;50.0625;94911.14;;;;
2020/04/20 04:36:06;;;;;;;7.650001;4.849999;;;;;;;9.11;50.0625;94911.14;;;;
2020/04/20 04:37:06;;;;;;;7.650001;4.849999;;;;;;;9.11;50.0625;94911.14;;;;
2020/04/20 04:38:07;;;;;;;7.650001;4.849999;;;;;;;9.11;50.0625;94911.14;;;;
2020/04/20 04:39:07;;;;;;;7.650001;4.849999;;;;;;;9.11;50.0625;94911.14;;;;
2020/04/20 04:40:09;;;;;;;7.650001;4.849999;;;;;;;9.11;50.0625;94911.14;;;;
2020/04/20 04:41:09;;;;;;;7.300001;4.75;;;;;;;9.01;50.25488;94928.43;;;;
2020/04/20 04:42:09;;;;;;;7.300001;4.75;;;;;;;9.01;50.25488;94928.43;;;;
2020/04/20 04:43:10;;;;;;;7.300001;4.75;;;;;;;9.01;50.25488;94928.43;;;;
2020/04/20 04:44:11;;;;;;;7.300001;4.75;;;;;;;9.01;50.25488;94928.43;;;;
2020/04/20 04:45:11;;;;;;;7.300001;4.75;;;;;;;9.01;50.25488;94928.43;;;;
2020/04/20 04:46:12;;;;;;;7.300001;4.75;;;;;;;9.01;50.25488;94928.43;;;;
2020/04/20 04:47:12;;;;;;;7.300001;4.75;;;;;;;9.01;50.25488;94928.43;;;;
2020/04/20 04:48:13;;;;;;;7.300001;4.75;;;;;;;9.01;50.25488;94928.43;;;;
2020/04/20 04:49:13;;;;;;;7.300001;4.75;;;;;;;9.01;50.25488;94928.43;;;;
2020/04/20 04:50:14;;;;;;;7.300001;4.75;;;;;;;9.01;50.25488;94928.43;;;;
2020/04/20 04:51:14;;;;;;;7.449999;4.699999;;;;;;;8.9;50.38184;94917.95;;;;
2020/04/20 04:52:15;;;;;;;7.449999;4.699999;;;;;;;8.9;50.38184;94917.95;;;;
2020/04/20 04:53:15;;;;;;;7.449999;4.699999;;;;;;;8.9;50.38184;94917.95;;;;
2020/04/20 04:54:16;;;;;;;7.449999;4.699999;;;;;;;8.9;50.38184;94917.95;;;;
2020/04/20 04:55:16;;;;;;;7.449999;4.699999;;;;;;;8.9;50.38184;94917.95;;;;
2020/04/20 04:56:17;;;;;;;7.449999;4.699999;;;;;;;8.9;50.38184;94917.95;;;;
2020/04/20 04:57:17;;;;;;;7.449999;4.699999;;;;;;;8.9;50.38184;94917.95;;;;
2020/04/20 04:58:18;;;;;;;7.449999;4.699999;;;;;;;8.9;50.38184;94917.95;;;;
2020/04/20 04:59:18;;;;;;;7.449999;4.699999;;;;;;;8.9;50.38184;94917.95;;;;
2020/04/20 05:00:19;;;;;;;7.449999;4.699999;;;;;;;8.9;50.38184;94917.95;;;;
2020/04/20 05:01:19;;;;;;;7.449999;4.699999;;;;;;;8.9;50.38184;94917.95;;;;
2020/04/20 05:02:20;;;;;;;8.25;4.65;;;;;;;8.88;50.33691;94923.17;;;;
2020/04/20 05:03:20;;;;;;;8.25;4.65;;;;;;;8.88;50.33691;94923.17;;;;
2020/04/20 05:04:20;;;;;;;8.25;4.65;;;;;;;8.88;50.33691;94923.17;;;;
2020/04/20 05:05:21;;;;;;;8.25;4.65;;;;;;;8.88;50.33691;94923.17;;;;
2020/04/20 05:06:21;;;;;;;8.25;4.65;;;;;;;8.88;50.33691;94923.17;;;;
2020/04/20 05:07:22;;;;;;;8.25;4.65;;;;;;;8.88;50.33691;94923.17;;;;
2020/04/20 05:08:22;;;;;;;8.25;4.65;;;;;;;8.88;50.33691;94923.17;;;;
2020/04/20 05:09:23;;;;;;;8.25;4.65;;;;;;;8.88;50.33691;94923.17;;;;
2020/04/20 05:10:23;;;;;;;8.25;4.65;;;;;;;8.88;50.33691;94923.17;;;;
2020/04/20 05:11:24;;;;;;;8.25;4.65;;;;;;;8.88;50.33691;94923.17;;;;
2020/04/20 05:12:24;;;;;;;6.849999;4.400001;;;;;;;8.78;50.23926;94921.15;;;;
2020/04/20 05:13:25;;;;;;;6.849999;4.400001;;;;;;;8.78;50.23926;94921.15;;;;
2020/04/20 05:14:25;;;;;;;6.849999;4.400001;;;;;;;8.78;50.23926;94921.15;;;;
2020/04/20 05:15:25;;;;;;;6.849999;4.400001;;;;;;;8.78;50.23926;94921.15;;;;
2020/04/20 05:16:26;;;;;;;6.849999;4.400001;;;;;;;8.78;50.23926;94921.15;;;;
2020/04/20 05:17:26;;;;;;;6.849999;4.400001;;;;;;;8.78;50.23926;94921.15;;;;
2020/04/20 05:18:27;;;;;;;6.849999;4.400001;;;;;;;8.78;50.23926;94921.15;;;;
2020/04/20 05:19:27;;;;;;;6.849999;4.400001;;;;;;;8.78;50.23926;94921.15;;;;
2020/04/20 05:20:28;;;;;;;6.849999;4.400001;;;;;;;8.78;50.23926;94921.15;;;;
2020/04/20 05:21:28;;;;;;;6.849999;4.400001;;;;;;;8.78;50.23926;94921.15;;;;
2020/04/20 05:22:29;;;;;;;6.849999;4.400001;;;;;;;8.78;50.23926;94921.15;;;;
2020/04/20 05:23:29;;;;;;;8.500001;4.4;;;;;;;8.75;50.20508;94923.39;;;;
2020/04/20 05:24:30;;;;;;;8.500001;4.4;;;;;;;8.75;50.20508;94923.39;;;;
2020/04/20 05:25:30;;;;;;;8.500001;4.4;;;;;;;8.75;50.20508;94923.39;;;;
2020/04/20 05:26:31;;;;;;;8.500001;4.4;;;;;;;8.75;50.20508;94923.39;;;;
2020/04/20 05:27:31;;;;;;;8.500001;4.4;;;;;;;8.75;50.20508;94923.39;;;;
2020/04/20 05:28:32;;;;;;;8.500001;4.4;;;;;;;8.75;50.20508;94923.39;;;;
2020/04/20 05:29:32;;;;;;;8.500001;4.4;;;;;;;8.75;50.20508;94923.39;;;;
2020/04/20 05:30:32;;;;;;;8.500001;4.4;;;;;;;8.75;50.20508;94923.39;;;;
2020/04/20 05:31:33;;;;;;;8.500001;4.4;;;;;;;8.75;50.20508;94923.39;;;;
2020/04/20 05:32:33;;;;;;;8.500001;4.4;;;;;;;8.75;50.20508;94923.39;;;;
2020/04/20 05:33:34;;;;;;;8.15;4.199999;;;;;;;8.9;50.03809;94919.31;;;;
2020/04/20 05:34:34;;;;;;;8.15;4.199999;;;;;;;8.9;50.03809;94919.31;;;;
2020/04/20 05:35:35;;;;;;;8.15;4.199999;;;;;;;8.9;50.03809;94919.31;;;;
2020/04/20 05:36:35;;;;;;;8.15;4.199999;;;;;;;8.9;50.03809;94919.31;;;;
2020/04/20 05:37:36;;;;;;;8.15;4.199999;;;;;;;8.9;50.03809;94919.31;;;;
2020/04/20 05:38:36;;;;;;;8.15;4.199999;;;;;;;8.9;50.03809;94919.31;;;;
2020/04/20 05:39:37;;;;;;;8.15;4.199999;;;;;;;8.9;50.03809;94919.31;;;;
2020/04/20 05:40:37;;;;;;;8.15;4.199999;;;;;;;8.9;50.03809;94919.31;;;;
2020/04/20 05:41:38;;;;;;;8.15;4.199999;;;;;;;8.9;50.03809;94919.31;;;;
2020/04/20 05:42:38;;;;;;;8.15;4.199999;;;;;;;8.9;50.03809;94919.31;;;;
2020/04/20 05:43:39;;;;;;;8.15;4.199999;;;;;;;8.9;50.03809;94919.31;;;;